createdAt,value
2023-02-02T00:08:28.828Z,5.50
2023-02-02T00:11:20.523Z,4.43
2023-02-02T00:17:24.056Z,5.93
2023-02-02T00:20:34.289Z,7.28
2023-02-02T00:23:26.500Z,5.78
2023-02-02T00:26:29.046Z,4.85
2023-02-02T00:29:28.039Z,6.18
2023-02-02T00:32:18.757Z,6.97
2023-02-02T00:35:10.571Z,6.18
2023-02-02T00:38:14.069Z,6.60
2023-02-02T00:41:05.079Z,6.38
2023-02-02T00:44:28.751Z,7.05
2023-02-02T00:47:24.442Z,6.80
2023-02-02T00:56:38.720Z,6.93
2023-02-02T00:59:25.762Z,4.88
2023-02-02T01:02:18.492Z,6.05
2023-02-02T01:05:27.691Z,4.55
2023-02-02T01:14:41.010Z,5.03
2023-02-02T01:17:33.109Z,4.53
2023-02-02T01:23:21.908Z,3.35
2023-02-02T01:26:20.093Z,3.63
2023-02-02T01:29:22.152Z,3.40
2023-02-02T01:32:11.694Z,2.78
2023-02-02T01:35:00.731Z,2.85
2023-02-02T01:38:08.848Z,1.63
2023-02-02T01:41:19.216Z,2.17
2023-02-02T01:44:46.519Z,1.40
2023-02-02T01:47:38.352Z,2.53
2023-02-02T01:50:32.203Z,3.05
2023-02-02T01:53:26.236Z,2.35
2023-02-02T01:56:22.867Z,3.15
2023-02-02T01:59:15.240Z,1.85
2023-02-02T02:02:09.261Z,2.35
2023-02-02T02:05:23.385Z,2.17
2023-02-02T02:08:54.179Z,2.08
2023-02-02T02:11:49.682Z,2.60
2023-02-02T02:15:05.682Z,3.35
2023-02-02T02:18:55.402Z,1.40
2023-02-02T02:27:13.044Z,2.53
2023-02-02T02:30:47.882Z,3.47
2023-02-02T02:34:11.535Z,2.38
2023-02-02T02:37:36.468Z,1.65
2023-02-02T02:40:26.059Z,2.05
2023-02-02T02:43:24.053Z,1.63
2023-02-02T02:46:16.079Z,2.55
2023-02-02T02:49:17.297Z,1.45
2023-02-02T02:52:06.851Z,2.58
2023-02-02T02:54:55.297Z,1.45
2023-02-02T02:57:53.860Z,2.17
2023-02-02T03:00:48.363Z,2.97
2023-02-02T03:04:33.696Z,1.63
2023-02-02T03:07:30.667Z,2.67
2023-02-02T03:10:27.082Z,1.63
2023-02-02T03:13:22.245Z,1.30
2023-02-02T03:16:10.855Z,1.75
2023-02-02T03:19:00.304Z,1.35
2023-02-02T03:21:51.954Z,1.95
2023-02-02T03:24:38.807Z,1.30
2023-02-02T03:27:26.139Z,3.03
2023-02-02T03:30:13.836Z,1.25
2023-02-02T03:33:00.942Z,2.30
2023-02-02T03:35:47.682Z,1.65
2023-02-02T03:38:47.147Z,2.55
2023-02-02T03:41:40.374Z,1.30
2023-02-02T03:44:27.853Z,2.40
2023-02-02T03:47:17.931Z,1.92
2023-02-02T03:50:06.913Z,1.30
2023-02-02T03:52:55.320Z,1.20
2023-02-02T03:56:00.519Z,1.47
2023-02-02T03:59:10.941Z,1.30
2023-02-02T04:02:17.574Z,1.77
2023-02-02T04:05:13.445Z,2.55
2023-02-02T04:08:03.382Z,1.20
2023-02-02T04:10:50.710Z,1.30
2023-02-02T04:13:37.949Z,1.33
2023-02-02T04:16:25.114Z,1.27
2023-02-02T04:19:15.356Z,1.33
2023-02-02T04:22:06.281Z,1.30
2023-02-02T04:27:58.839Z,1.10
2023-02-02T04:30:49.841Z,1.30
2023-02-02T04:33:49.389Z,1.27
2023-02-02T04:36:39.548Z,1.75
2023-02-02T04:39:26.772Z,1.20
2023-02-02T04:42:13.978Z,1.20
2023-02-02T04:45:08.609Z,1.13
2023-02-02T04:47:58.256Z,1.30
2023-02-02T04:50:46.728Z,1.20
2023-02-02T04:53:33.807Z,1.57
2023-02-02T04:56:32.779Z,1.10
2023-02-02T04:59:22.940Z,1.15
2023-02-02T05:02:10.205Z,1.30
2023-02-02T05:05:04.728Z,1.27
2023-02-02T05:07:53.261Z,1.30
2023-02-02T05:10:43.327Z,1.30
2023-02-02T05:13:48.509Z,1.20
2023-02-02T05:16:50.260Z,1.10
2023-02-02T05:19:38.848Z,1.30
2023-02-02T05:22:29.173Z,1.20
2023-02-02T05:25:24.475Z,1.00
2023-02-02T05:28:24.446Z,1.10
2023-02-02T05:31:26.745Z,1.95
2023-02-02T05:34:33.223Z,1.27
2023-02-02T05:37:29.575Z,1.33
2023-02-02T05:40:29.063Z,1.25
2023-02-02T05:43:44.469Z,1.13
2023-02-02T05:50:36.157Z,1.23
2023-02-02T05:57:19.678Z,1.20
2023-02-02T06:00:28.804Z,1.10
2023-02-02T06:03:29.039Z,1.00
2023-02-02T06:10:21.898Z,1.35
2023-02-02T06:14:26.219Z,1.00
2023-02-02T06:18:01.153Z,1.20
2023-02-02T06:21:25.365Z,1.10
2023-02-02T06:28:09.619Z,1.40
2023-02-02T06:31:05.900Z,1.13
2023-02-02T06:34:25.221Z,1.38
2023-02-02T06:37:13.251Z,1.10
2023-02-02T06:40:00.594Z,1.17
2023-02-02T06:42:47.336Z,1.10
2023-02-02T06:45:38.143Z,1.23
2023-02-02T06:48:26.007Z,1.20
2023-02-02T06:51:12.862Z,1.10
2023-02-02T06:53:59.754Z,1.10
2023-02-02T06:56:46.487Z,1.20
2023-02-02T06:59:33.238Z,1.13
2023-02-02T07:02:20.196Z,1.23
2023-02-02T07:05:07.062Z,1.15
2023-02-02T07:07:53.838Z,2.40
2023-02-02T07:11:14.057Z,1.00
2023-02-02T07:13:49.243Z,1.30
2023-02-02T07:16:36.051Z,1.58
2023-02-02T07:19:22.984Z,1.00
2023-02-02T07:22:09.859Z,1.33
2023-02-02T07:24:56.628Z,1.20
2023-02-02T07:27:43.461Z,1.10
2023-02-02T07:30:30.259Z,1.05
2023-02-02T07:33:17.023Z,1.50
2023-02-02T07:36:04.002Z,1.75
2023-02-02T07:38:57.325Z,1.10
2023-02-02T07:41:44.227Z,1.20
2023-02-02T07:44:31.040Z,1.10
2023-02-02T07:47:17.846Z,1.23
2023-02-02T07:50:04.847Z,2.80
2023-02-02T07:52:52.533Z,1.10
2023-02-02T07:55:39.330Z,1.13
2023-02-02T07:58:26.119Z,1.10
2023-02-02T08:01:14.467Z,1.10
2023-02-02T08:04:01.612Z,1.10
2023-02-02T08:06:48.412Z,1.10
2023-02-02T08:09:35.434Z,1.48
2023-02-02T08:12:24.809Z,1.38
2023-02-02T08:15:12.392Z,1.70
2023-02-02T08:17:59.232Z,1.50
2023-02-02T08:20:46.046Z,1.55
2023-02-02T08:23:32.973Z,1.45
2023-02-02T08:26:20.901Z,2.03
2023-02-02T08:29:08.441Z,2.15
2023-02-02T08:31:55.263Z,2.55
2023-02-02T08:34:42.102Z,2.40
2023-02-02T08:37:28.989Z,1.35
2023-02-02T08:40:15.843Z,1.67
2023-02-02T08:43:05.192Z,1.30
2023-02-02T08:46:01.139Z,3.03
2023-02-02T08:48:51.593Z,1.38
2023-02-02T08:51:38.358Z,1.52
2023-02-02T08:54:25.177Z,1.33
2023-02-02T08:57:12.082Z,1.48
2023-02-02T08:59:58.903Z,1.98
2023-02-02T09:02:45.675Z,2.67
2023-02-02T09:05:32.535Z,1.20
2023-02-02T09:08:19.428Z,1.90
2023-02-02T09:11:11.538Z,1.40
2023-02-02T09:13:59.670Z,2.20
2023-02-02T09:16:46.631Z,1.88
2023-02-02T09:19:34.034Z,1.67
2023-02-02T09:22:21.395Z,2.10
2023-02-02T09:25:08.503Z,1.40
2023-02-02T09:28:00.820Z,2.60
2023-02-02T09:30:47.668Z,1.40
2023-02-02T09:33:34.844Z,1.75
2023-02-02T09:36:23.480Z,1.55
2023-02-02T09:39:12.679Z,1.90
2023-02-02T09:45:32.614Z,1.52
2023-02-02T09:48:44.520Z,1.30
2023-02-02T09:51:36.334Z,1.75
2023-02-02T09:54:28.730Z,1.40
2023-02-02T09:57:20.191Z,1.92
2023-02-02T10:00:36.559Z,2.25
2023-02-02T10:03:54.264Z,1.25
2023-02-02T10:06:46.560Z,3.10
2023-02-02T10:09:48.647Z,1.50
2023-02-02T10:12:47.716Z,1.40
2023-02-02T10:15:37.948Z,1.52
2023-02-02T10:18:43.285Z,1.42
2023-02-02T10:22:15.530Z,1.50
2023-02-02T10:25:02.695Z,1.40
2023-02-02T10:28:09.952Z,1.45
2023-02-02T10:31:04.554Z,3.08
2023-02-02T10:34:07.147Z,1.52
2023-02-02T10:36:59.239Z,1.92
2023-02-02T10:40:25.156Z,2.33
2023-02-02T10:43:49.493Z,1.50
2023-02-02T10:46:48.200Z,1.70
2023-02-02T10:49:39.584Z,1.50
2023-02-02T10:52:32.388Z,1.58
2023-02-02T10:55:37.050Z,2.13
2023-02-02T10:58:32.539Z,1.38
2023-02-02T11:01:22.621Z,1.63
2023-02-02T11:04:29.563Z,1.67
2023-02-02T11:07:20.538Z,1.55
2023-02-02T11:10:07.612Z,1.30
2023-02-02T11:12:57.037Z,2.28
2023-02-02T11:15:43.902Z,1.50
2023-02-02T11:18:31.126Z,1.40
2023-02-02T11:21:20.724Z,2.53
2023-02-02T11:24:24.922Z,1.27
2023-02-02T11:27:27.510Z,1.98
2023-02-02T11:30:27.352Z,1.38
2023-02-02T11:33:35.167Z,1.45
2023-02-02T11:36:22.079Z,1.40
2023-02-02T11:39:17.014Z,1.40
2023-02-02T11:42:12.929Z,1.15
2023-02-02T11:44:59.842Z,1.77
2023-02-02T11:47:47.008Z,1.55
2023-02-02T11:50:34.107Z,1.40
2023-02-02T11:53:40.760Z,1.40
2023-02-02T11:56:28.459Z,1.30
2023-02-02T11:59:41.172Z,1.70
2023-02-02T12:02:29.339Z,1.40
2023-02-02T12:05:19.564Z,1.80
2023-02-02T12:08:09.156Z,1.40
2023-02-02T12:11:04.301Z,1.48
2023-02-02T12:14:00.303Z,2.33
2023-02-02T12:17:00.126Z,2.25
2023-02-02T12:20:08.363Z,2.20
2023-02-02T12:22:57.893Z,1.95
2023-02-02T12:25:53.581Z,2.55
2023-02-02T12:28:49.745Z,2.28
2023-02-02T12:32:18.279Z,2.80
2023-02-02T12:35:15.884Z,3.78
2023-02-02T12:38:13.452Z,2.67
2023-02-02T12:41:40.133Z,3.72
2023-02-02T12:44:50.911Z,2.58
2023-02-02T12:47:59.273Z,2.40
2023-02-02T12:51:27.652Z,2.40
2023-02-02T12:54:46.686Z,3.28
2023-02-02T12:58:23.572Z,2.33
2023-02-02T13:01:38.891Z,2.83
2023-02-02T13:05:14.024Z,2.55
2023-02-02T13:08:11.030Z,2.28
2023-02-02T13:11:02.593Z,3.63
2023-02-02T13:13:51.931Z,2.00
2023-02-02T13:19:41.396Z,2.28
2023-02-02T13:22:35.228Z,2.65
2023-02-02T13:25:29.757Z,3.80
2023-02-02T13:28:24.392Z,3.30
2023-02-02T13:31:44.473Z,3.42
2023-02-02T13:34:41.927Z,2.97
2023-02-02T13:37:40.017Z,4.38
2023-02-02T13:40:36.996Z,4.45
2023-02-02T13:43:42.984Z,4.85
2023-02-02T13:46:48.518Z,4.57
2023-02-02T13:49:46.695Z,4.97
2023-02-02T13:53:12.061Z,5.93
2023-02-02T13:56:26.825Z,4.95
2023-02-02T13:59:45.999Z,5.60
2023-02-02T14:05:35.770Z,5.45
2023-02-02T14:08:26.290Z,5.28
2023-02-02T14:11:19.262Z,5.43
2023-02-02T14:14:38.027Z,6.43
2023-02-02T14:17:33.927Z,6.63
2023-02-02T14:20:41.146Z,5.05
2023-02-02T14:23:53.959Z,6.25
2023-02-02T14:27:00.140Z,6.97
2023-02-02T14:29:47.286Z,5.95
2023-02-02T14:32:42.245Z,6.65
2023-02-02T14:35:29.600Z,6.78
2023-02-02T14:38:22.677Z,5.15
2023-02-02T14:41:38.204Z,6.70
2023-02-02T14:44:27.768Z,5.47
2023-02-02T14:47:50.219Z,7.38
2023-02-02T14:50:40.609Z,6.10
2023-02-02T14:53:38.610Z,5.80
2023-02-02T14:56:45.558Z,5.78
2023-02-02T14:59:36.241Z,6.82
2023-02-02T15:02:32.744Z,5.68
2023-02-02T15:05:28.837Z,7.00
2023-02-02T15:08:26.900Z,6.70
2023-02-02T15:11:28.830Z,6.72
2023-02-02T15:14:16.413Z,6.68
2023-02-02T15:17:07.704Z,6.75
2023-02-02T15:20:07.024Z,6.43
2023-02-02T15:26:07.013Z,5.47
2023-02-02T15:29:07.316Z,7.40
2023-02-02T15:31:54.996Z,5.45
2023-02-02T15:34:54.727Z,7.05
2023-02-02T15:37:43.845Z,6.97
2023-02-02T15:40:32.172Z,6.93
2023-02-02T15:43:19.101Z,6.18
2023-02-02T15:46:09.686Z,5.88
2023-02-02T15:49:32.634Z,6.40
2023-02-02T15:52:26.817Z,4.75
2023-02-02T15:55:20.736Z,7.20
2023-02-02T15:58:31.671Z,6.78
2023-02-02T16:01:21.417Z,5.97
2023-02-02T16:04:18.718Z,5.95
2023-02-02T16:07:09.723Z,5.68
2023-02-02T16:10:01.051Z,6.57
2023-02-02T16:12:48.215Z,6.35
2023-02-02T16:15:35.071Z,5.45
2023-02-02T16:18:21.893Z,5.57
2023-02-02T16:21:16.127Z,6.95
2023-02-02T16:24:05.131Z,7.40
2023-02-02T16:26:53.528Z,7.05
2023-02-02T16:29:41.299Z,7.57
2023-02-02T16:32:33.479Z,8.38
2023-02-02T16:35:38.539Z,6.15
2023-02-02T16:38:39.422Z,7.18
2023-02-02T16:41:36.584Z,6.57
2023-02-02T16:44:43.896Z,7.13
2023-02-02T16:47:33.442Z,7.38
2023-02-02T16:50:29.003Z,7.28
2023-02-02T16:53:28.512Z,6.65
2023-02-02T16:56:47.316Z,7.00
2023-02-02T17:10:57.817Z,7.45
2023-02-02T17:26:18.738Z,6.40
2023-02-02T17:33:36.441Z,6.03
2023-02-02T17:36:43.225Z,7.13
2023-02-02T17:39:42.232Z,5.95
2023-02-02T17:42:43.544Z,6.50
2023-02-02T17:45:34.153Z,5.85
2023-02-02T17:49:11.868Z,7.15
2023-02-02T17:52:33.650Z,7.30
2023-02-02T17:56:07.123Z,6.20
2023-02-02T17:58:54.105Z,5.53
2023-02-02T18:01:42.138Z,5.50
2023-02-02T18:11:24.254Z,6.25
2023-02-02T18:15:00.065Z,4.65
2023-02-02T18:18:04.579Z,6.38
2023-02-02T18:21:01.998Z,5.05
2023-02-02T18:24:07.123Z,6.45
2023-02-02T18:27:43.426Z,5.70
2023-02-02T18:31:05.796Z,5.78
2023-02-02T18:34:29.833Z,4.65
2023-02-02T18:37:26.055Z,6.82
2023-02-02T18:40:15.142Z,6.35
2023-02-02T18:43:36.879Z,6.25
2023-02-02T18:53:11.952Z,5.97
2023-02-02T18:56:26.633Z,5.72
2023-02-02T18:59:16.791Z,6.43
2023-02-02T19:02:23.377Z,5.22
2023-02-02T19:05:50.763Z,5.75
2023-02-02T19:08:41.873Z,7.10
2023-02-02T19:11:51.078Z,6.75
2023-02-02T19:17:45.917Z,5.65
2023-02-02T19:20:48.932Z,5.80
2023-02-02T19:24:17.809Z,7.57
2023-02-02T19:27:29.460Z,6.10
2023-02-02T19:30:52.767Z,5.93
2023-02-02T19:33:44.899Z,6.38
2023-02-02T19:36:32.413Z,5.55
2023-02-02T19:39:40.482Z,6.07
2023-02-02T19:42:42.729Z,5.25
2023-02-02T19:45:36.561Z,4.60
2023-02-02T19:48:41.003Z,5.63
2023-02-02T19:51:46.000Z,5.82
2023-02-02T19:55:10.911Z,4.65
2023-02-02T19:58:42.475Z,5.28
2023-02-02T20:02:19.821Z,4.55
2023-02-02T20:05:24.077Z,6.65
2023-02-02T20:08:39.770Z,5.57
2023-02-02T20:11:43.247Z,5.55
2023-02-02T20:25:26.250Z,5.22
2023-02-02T20:29:27.627Z,5.90
2023-02-02T20:32:51.260Z,5.70
2023-02-02T20:35:58.998Z,5.32
2023-02-02T20:39:13.307Z,5.05
2023-02-02T20:42:29.240Z,5.72
2023-02-02T20:45:30.999Z,5.53
2023-02-02T20:48:24.830Z,5.07
2023-02-02T20:52:04.098Z,5.00
2023-02-02T20:55:08.600Z,4.38
2023-02-02T20:58:19.198Z,6.25
2023-02-02T21:10:45.635Z,4.47
2023-02-02T21:17:16.154Z,4.15
2023-02-02T21:20:05.379Z,5.00
2023-02-02T21:26:34.527Z,5.13
2023-02-02T21:29:46.680Z,4.63
2023-02-02T21:34:11.308Z,3.35
2023-02-02T21:37:00.788Z,5.40
2023-02-02T21:39:56.172Z,4.43
2023-02-02T21:42:52.705Z,4.90
2023-02-02T21:45:39.709Z,4.40
2023-02-02T21:48:33.082Z,5.50
2023-02-02T21:51:31.538Z,5.43
2023-02-02T21:54:29.253Z,4.72
2023-02-02T21:57:44.753Z,5.65
2023-02-02T22:00:39.725Z,5.30
2023-02-02T22:03:44.604Z,5.20
2023-02-02T22:06:57.197Z,4.88
2023-02-02T22:10:08.617Z,4.78
2023-02-02T22:13:15.762Z,5.32
2023-02-02T22:16:15.726Z,5.32
2023-02-02T22:19:31.830Z,6.25
2023-02-02T22:25:35.530Z,5.70
2023-02-02T22:28:33.395Z,7.13
2023-02-02T22:31:27.565Z,6.75
2023-02-02T22:34:38.754Z,6.35
2023-02-02T22:37:41.773Z,6.20
2023-02-02T22:40:29.212Z,5.28
2023-02-02T22:43:19.840Z,6.30
2023-02-02T22:46:07.222Z,6.57
2023-02-02T22:48:54.073Z,7.00
2023-02-02T22:51:40.897Z,7.07
2023-02-02T22:54:27.941Z,7.65
2023-02-02T22:57:16.716Z,6.72
2023-02-02T23:00:45.070Z,7.53
2023-02-02T23:03:45.510Z,8.05
2023-02-02T23:06:37.249Z,6.75
2023-02-02T23:09:24.414Z,7.43
2023-02-02T23:12:12.462Z,6.97
2023-02-02T23:14:59.628Z,8.02
2023-02-02T23:17:49.628Z,8.32
2023-02-02T23:20:39.850Z,7.85
2023-02-02T23:23:29.563Z,8.18
2023-02-02T23:26:26.217Z,8.15
2023-02-02T23:29:18.077Z,7.80
2023-02-02T23:32:05.371Z,8.68
2023-02-02T23:34:52.217Z,8.20
2023-02-02T23:37:50.301Z,7.97
2023-02-02T23:40:48.315Z,8.27
2023-02-02T23:43:42.777Z,7.40
2023-02-02T23:46:30.006Z,7.57
2023-02-02T23:49:22.150Z,7.75
2023-02-02T23:52:09.130Z,7.97
2023-02-02T23:54:58.811Z,7.90
2023-02-02T23:57:45.631Z,8.18
